Time;durP1;ratioP1;P1;durP2;ratioP2;P2;SDS_P1;SDS_P2;PMS_P1;PMS_P2;Temp;Humidity;BMP_temperature;BMP_pressure;BME280_temperature;BME280_humidity;BME280_pressure;Samples;Min_cycle;Max_cycle;Signal;HPM_P1;HPM_P2
2024/03/17 00:00:42;;;;;;;9.10;4.90;;;11.80;99.90;;;;;;5022229;28;20029;-83
2024/03/17 00:03:08;;;;;;;6.18;3.60;;;11.80;99.90;;;;;;5011574;28;20682;-83
2024/03/17 00:05:35;;;;;;;7.45;4.72;;;11.80;99.90;;;;;;5011927;28;20029;-83
2024/03/17 00:08:01;;;;;;;6.28;3.83;;;11.80;99.90;;;;;;5029211;28;20104;-84
2024/03/17 00:10:26;;;;;;;8.02;4.35;;;11.80;99.90;;;;;;5028882;28;20027;-84
2024/03/17 00:12:52;;;;;;;14.68;4.03;;;11.80;99.90;;;;;;5012347;28;20028;-86
2024/03/17 00:15:18;;;;;;;8.65;4.05;;;11.80;99.90;;;;;;5010479;28;20713;-83
2024/03/17 00:17:43;;;;;;;5.60;3.85;;;11.80;99.90;;;;;;5008609;28;20120;-83
2024/03/17 00:20:18;;;;;;;6.03;4.20;;;11.80;99.90;;;;;;5013517;28;20030;-85
2024/03/17 00:22:46;;;;;;;9.30;4.40;;;11.80;99.90;;;;;;5014534;28;20033;-84
2024/03/17 00:25:11;;;;;;;6.78;3.80;;;11.80;99.90;;;;;;5028716;28;20043;-84
2024/03/17 00:27:40;;;;;;;6.45;4.05;;;11.80;99.90;;;;;;5009150;28;20690;-84
2024/03/17 00:30:12;;;;;;;7.72;3.85;;;11.80;99.90;;;;;;5013092;28;20041;-83
2024/03/17 00:32:38;;;;;;;6.57;3.67;;;11.80;99.90;;;;;;5030427;28;20025;-84
2024/03/17 00:35:04;;;;;;;5.65;3.85;;;11.80;99.90;;;;;;5011906;28;20447;-83
2024/03/17 00:37:30;;;;;;;8.30;3.97;;;11.80;99.90;;;;;;5030182;28;20052;-85
2024/03/17 00:39:56;;;;;;;5.43;3.53;;;11.80;99.90;;;;;;5008037;28;20057;-82
2024/03/17 00:42:21;;;;;;;8.10;4.53;;;11.80;99.90;;;;;;5011050;28;20116;-84
2024/03/17 00:44:47;;;;;;;9.27;3.67;;;11.80;99.90;;;;;;5030187;28;20611;-84
2024/03/17 00:47:13;;;;;;;6.22;3.58;;;11.80;99.90;;;;;;5028516;28;20495;-83
2024/03/17 00:49:38;;;;;;;6.57;3.78;;;11.80;99.90;;;;;;5010978;28;20511;-83
2024/03/17 00:52:04;;;;;;;5.82;3.67;;;11.80;99.90;;;;;;5013975;28;20036;-84
2024/03/17 00:54:30;;;;;;;6.95;3.63;;;11.80;99.90;;;;;;5030837;28;20030;-84
2024/03/17 00:56:56;;;;;;;6.38;3.83;;;11.80;99.90;;;;;;5007800;28;20037;-84
2024/03/17 00:59:21;;;;;;;8.60;3.90;;;11.80;99.90;;;;;;5024655;28;20033;-83
2024/03/17 01:01:47;;;;;;;5.45;4.03;;;11.80;99.90;;;;;;5005652;28;20032;-82
2024/03/17 01:04:12;;;;;;;7.80;3.58;;;11.80;99.90;;;;;;5010414;28;20502;-83
2024/03/17 01:06:40;;;;;;;6.65;3.70;;;11.80;99.90;;;;;;5011750;28;20021;-86
2024/03/17 01:09:06;;;;;;;6.20;3.72;;;11.80;99.90;;;;;;5013077;28;20025;-84
2024/03/17 01:11:32;;;;;;;6.03;3.60;;;11.80;99.90;;;;;;5012449;28;20041;-84
2024/03/17 01:13:57;;;;;;;4.88;3.03;;;11.80;99.90;;;;;;5011738;28;20056;-84
2024/03/17 01:16:23;;;;;;;6.00;3.75;;;11.80;99.90;;;;;;5028994;28;20052;-83
2024/03/17 01:18:49;;;;;;;7.65;4.28;;;11.80;99.90;;;;;;5009940;28;20487;-84
2024/03/17 01:21:15;;;;;;;6.68;4.00;;;11.80;99.90;;;;;;5029619;28;20029;-86
2024/03/17 01:23:40;;;;;;;8.48;3.83;;;11.80;99.90;;;;;;5011434;28;20617;-83
2024/03/17 01:26:06;;;;;;;7.13;4.22;;;11.80;99.90;;;;;;5012963;28;20013;-84
2024/03/17 01:28:32;;;;;;;7.97;4.13;;;11.70;99.90;;;;;;5027538;28;20107;-83
2024/03/17 01:30:57;;;;;;;7.13;3.65;;;11.80;99.90;;;;;;5027622;28;20036;-84
2024/03/17 01:33:23;;;;;;;6.50;3.42;;;11.70;99.90;;;;;;5008111;28;20025;-84
2024/03/17 01:35:48;;;;;;;5.88;3.88;;;11.80;99.90;;;;;;5024039;28;20028;-86
2024/03/17 01:38:14;;;;;;;6.47;4.00;;;11.80;99.90;;;;;;5010856;28;20128;-83
2024/03/17 01:40:39;;;;;;;8.18;3.70;;;11.80;99.90;;;;;;5007295;28;20017;-84
2024/03/17 01:43:09;;;;;;;8.65;3.83;;;11.70;99.90;;;;;;5006502;28;20145;-83
2024/03/17 01:45:35;;;;;;;7.15;3.67;;;11.80;99.90;;;;;;5029746;28;20049;-83
2024/03/17 01:48:02;;;;;;;5.72;3.50;;;11.70;99.90;;;;;;5012234;28;20053;-85
2024/03/17 01:50:38;;;;;;;8.50;3.92;;;11.70;99.90;;;;;;5010955;28;20498;-86
2024/03/17 01:53:06;;;;;;;4.38;3.17;;;11.80;99.90;;;;;;5029781;28;20025;-83
2024/03/17 01:55:34;;;;;;;6.97;3.75;;;11.70;99.90;;;;;;5009899;28;20030;-86
2024/03/17 01:58:00;;;;;;;5.07;3.40;;;11.70;99.90;;;;;;5012335;28;20056;-84
2024/03/17 02:00:26;;;;;;;7.40;3.97;;;11.80;99.90;;;;;;5008805;28;20057;-85
2024/03/17 02:02:52;;;;;;;6.97;3.88;;;11.70;99.90;;;;;;5012121;28;20053;-84
2024/03/17 02:05:17;;;;;;;7.25;3.85;;;11.80;99.90;;;;;;5011195;28;20116;-83
2024/03/17 02:07:43;;;;;;;5.00;3.60;;;11.70;99.90;;;;;;5007608;28;20053;-84
2024/03/17 02:10:09;;;;;;;5.93;3.60;;;11.70;99.90;;;;;;5007716;28;20026;-84
2024/03/17 02:12:35;;;;;;;6.35;3.53;;;11.70;99.90;;;;;;5029640;28;20040;-85
2024/03/17 02:15:05;;;;;;;5.47;3.50;;;11.80;99.90;;;;;;5004143;28;20029;-84
2024/03/17 02:17:33;;;;;;;8.70;3.83;;;11.70;99.90;;;;;;5009749;28;20109;-87
2024/03/17 02:19:59;;;;;;;6.85;3.70;;;11.70;99.90;;;;;;5011785;28;20045;-84
2024/03/17 02:22:25;;;;;;;6.32;3.45;;;11.70;99.90;;;;;;5009891;28;20068;-83
2024/03/17 02:24:51;;;;;;;5.82;3.63;;;11.80;99.90;;;;;;5025518;28;20117;-83
2024/03/17 02:27:17;;;;;;;5.75;3.38;;;11.70;99.90;;;;;;5006712;28;20108;-84
2024/03/17 02:29:42;;;;;;;4.47;3.30;;;11.70;99.90;;;;;;5009628;28;20026;-84
2024/03/17 02:32:08;;;;;;;8.88;2.97;;;11.70;99.90;;;;;;5009402;28;20109;-86
2024/03/17 02:34:38;;;;;;;6.50;3.53;;;11.70;99.90;;;;;;5028275;28;20037;-84
2024/03/17 02:37:05;;;;;;;6.50;3.47;;;11.70;99.90;;;;;;5010366;28;20051;-83
2024/03/17 02:39:34;;;;;;;5.57;3.13;;;11.70;99.90;;;;;;5012295;28;20499;-87
2024/03/17 02:42:05;;;;;;;6.60;3.60;;;11.70;99.90;;;;;;5010779;28;20019;-84
2024/03/17 02:44:31;;;;;;;7.57;3.08;;;11.70;99.90;;;;;;5009215;28;20369;-86
2024/03/17 02:47:00;;;;;;;7.45;3.78;;;11.70;99.90;;;;;;5010079;28;20026;-85
2024/03/17 02:49:27;;;;;;;7.15;3.60;;;11.70;99.90;;;;;;5010732;28;20033;-85
2024/03/17 02:51:54;;;;;;;5.85;3.35;;;11.70;99.90;;;;;;5011096;28;20029;-84
2024/03/17 02:54:20;;;;;;;7.50;3.25;;;11.70;99.90;;;;;;5010537;28;20022;-83
2024/03/17 02:56:46;;;;;;;6.25;3.65;;;11.70;99.90;;;;;;5005604;28;20029;-83
2024/03/17 02:59:12;;;;;;;5.20;3.53;;;11.70;99.90;;;;;;5029684;28;20057;-85
2024/03/17 03:01:37;;;;;;;8.63;3.30;;;11.70;99.90;;;;;;5025274;28;20071;-83
2024/03/17 03:04:03;;;;;;;6.20;3.08;;;11.70;99.90;;;;;;5009454;28;20410;-84
2024/03/17 03:06:28;;;;;;;7.80;3.67;;;11.70;99.90;;;;;;5011607;28;20567;-84
2024/03/17 03:08:54;;;;;;;4.22;3.17;;;11.70;99.90;;;;;;5007940;28;20518;-83
2024/03/17 03:11:20;;;;;;;4.70;3.10;;;11.70;99.90;;;;;;5023061;28;20499;-85
2024/03/17 03:13:46;;;;;;;6.18;3.72;;;11.70;99.90;;;;;;5028367;28;20056;-84
2024/03/17 03:16:14;;;;;;;5.93;3.65;;;11.70;99.90;;;;;;5005072;28;20109;-85
2024/03/17 03:18:40;;;;;;;8.27;4.47;;;11.70;99.90;;;;;;5028016;28;20022;-85
2024/03/17 03:21:06;;;;;;;8.25;3.90;;;11.70;99.90;;;;;;5008102;28;20603;-85
2024/03/17 03:23:32;;;;;;;8.85;4.32;;;11.70;99.90;;;;;;5009139;28;20499;-84
2024/03/17 03:25:59;;;;;;;8.38;4.55;;;11.70;99.90;;;;;;5024561;28;20018;-83
2024/03/17 03:28:26;;;;;;;8.57;4.88;;;11.70;99.90;;;;;;5009556;28;20040;-84
2024/03/17 03:30:52;;;;;;;12.10;4.20;;;11.70;99.90;;;;;;5011608;28;20018;-83
2024/03/17 03:33:19;;;;;;;7.35;4.53;;;11.70;99.90;;;;;;5029429;28;20052;-84
2024/03/17 03:35:45;;;;;;;8.07;4.45;;;11.70;99.90;;;;;;5030176;28;20033;-84
2024/03/17 03:38:11;;;;;;;7.97;4.32;;;11.70;99.90;;;;;;5014212;28;20460;-85
2024/03/17 03:40:37;;;;;;;10.00;4.25;;;11.70;99.90;;;;;;5010978;28;20060;-85
2024/03/17 03:43:02;;;;;;;6.75;4.35;;;11.70;99.90;;;;;;5012907;28;20057;-84
2024/03/17 03:45:28;;;;;;;7.13;4.43;;;11.70;99.90;;;;;;5007079;28;20040;-84
2024/03/17 03:47:53;;;;;;;8.35;4.40;;;11.70;99.90;;;;;;5008747;28;20028;-85
2024/03/17 03:50:21;;;;;;;8.48;4.85;;;11.70;99.90;;;;;;5013217;28;20021;-83
2024/03/17 03:52:46;;;;;;;11.65;4.85;;;11.70;99.90;;;;;;5031470;28;20029;-86
2024/03/17 03:55:15;;;;;;;10.48;4.63;;;11.70;99.90;;;;;;5028327;28;20097;-84
2024/03/17 03:57:42;;;;;;;8.38;4.75;;;11.70;99.90;;;;;;5011225;28;20402;-84
2024/03/17 04:00:14;;;;;;;11.52;5.10;;;11.70;99.90;;;;;;5013444;28;20738;-83
2024/03/17 04:02:43;;;;;;;10.10;4.60;;;11.70;99.90;;;;;;5007214;28;20029;-85
2024/03/17 04:05:10;;;;;;;10.02;5.22;;;11.60;99.90;;;;;;5012280;28;20521;-82
2024/03/17 04:07:36;;;;;;;12.18;5.30;;;11.70;99.90;;;;;;5009370;28;20029;-86
2024/03/17 04:10:03;;;;;;;9.77;4.30;;;11.70;99.90;;;;;;5014686;28;20476;-84
2024/03/17 04:12:32;;;;;;;8.50;4.57;;;11.70;99.90;;;;;;5029181;28;20029;-84
2024/03/17 04:14:58;;;;;;;10.68;4.95;;;11.70;99.90;;;;;;5011756;28;20033;-84
2024/03/17 04:17:24;;;;;;;9.85;4.95;;;11.70;99.90;;;;;;5013659;28;20029;-83
2024/03/17 04:19:51;;;;;;;8.27;4.53;;;11.70;99.90;;;;;;5011394;28;20541;-87
2024/03/17 04:22:17;;;;;;;9.32;4.85;;;11.60;99.90;;;;;;5013929;28;20029;-84
2024/03/17 04:24:47;;;;;;;11.48;5.65;;;11.70;99.90;;;;;;5014504;28;20024;-84
2024/03/17 04:27:13;;;;;;;;;;;11.70;99.90;;;;;;5024020;28;20018;-84
2024/03/17 04:29:39;;;;;;;7.70;4.15;;;11.70;99.90;;;;;;5013488;28;20461;-83
2024/03/17 04:32:05;;;;;;;9.80;5.55;;;11.70;99.90;;;;;;5031905;28;20041;-84
2024/03/17 04:34:31;;;;;;;9.68;5.03;;;11.70;99.90;;;;;;5013363;28;20037;-84
2024/03/17 04:36:57;;;;;;;7.45;4.55;;;11.70;99.90;;;;;;5011002;28;20094;-83
2024/03/17 04:39:24;;;;;;;12.07;5.90;;;11.70;99.90;;;;;;5009761;28;20018;-83
2024/03/17 04:41:50;;;;;;;7.95;5.20;;;11.60;99.90;;;;;;5008421;28;20105;-84
2024/03/17 04:44:16;;;;;;;9.13;4.35;;;11.70;99.90;;;;;;5010210;28;20100;-85
2024/03/17 04:46:42;;;;;;;10.55;5.47;;;11.60;99.90;;;;;;5008611;28;20013;-86
2024/03/17 04:49:08;;;;;;;10.10;5.05;;;11.60;99.90;;;;;;5030166;28;20029;-84
2024/03/17 04:51:34;;;;;;;8.13;4.70;;;11.60;99.90;;;;;;5009204;28;20026;-83
2024/03/17 04:54:00;;;;;;;7.22;5.10;;;11.60;99.90;;;;;;5011997;28;20029;-86
2024/03/17 04:56:26;;;;;;;10.95;5.10;;;11.60;99.90;;;;;;5011523;28;20033;-84
2024/03/17 04:58:51;;;;;;;10.80;5.15;;;11.60;99.90;;;;;;5009217;28;20136;-83
2024/03/17 05:01:17;;;;;;;9.23;4.95;;;11.60;99.90;;;;;;5026657;28;20057;-84
2024/03/17 05:03:42;;;;;;;8.85;5.45;;;11.60;99.90;;;;;;5007274;28;20029;-86
2024/03/17 05:06:08;;;;;;;7.78;4.97;;;11.60;99.90;;;;;;5029125;28;20549;-84
2024/03/17 05:08:34;;;;;;;8.48;5.13;;;11.60;99.90;;;;;;5034592;28;20552;-83
2024/03/17 05:11:04;;;;;;;9.25;4.80;;;11.60;99.90;;;;;;5010906;28;20021;-83
2024/03/17 05:13:31;;;;;;;7.78;5.63;;;11.60;99.90;;;;;;5013227;28;20072;-83
2024/03/17 05:15:56;;;;;;;10.63;5.15;;;11.60;99.90;;;;;;5029021;28;20068;-84
2024/03/17 05:18:25;;;;;;;6.85;4.78;;;11.60;99.90;;;;;;5030949;28;20045;-84
2024/03/17 05:21:00;;;;;;;8.52;4.82;;;11.60;99.90;;;;;;5012685;28;20024;-84
2024/03/17 05:23:30;;;;;;;8.63;4.75;;;11.60;99.90;;;;;;5029646;28;20080;-84
2024/03/17 05:25:57;;;;;;;8.88;4.88;;;11.60;99.90;;;;;;5013115;28;20056;-85
2024/03/17 05:28:27;;;;;;;9.38;4.70;;;11.60;99.90;;;;;;5012953;28;20021;-84
2024/03/17 05:30:52;;;;;;;9.48;5.07;;;11.60;99.90;;;;;;5007958;28;20013;-84
2024/03/17 05:33:21;;;;;;;9.88;5.53;;;11.60;99.90;;;;;;5005938;28;20033;-83
2024/03/17 05:35:52;;;;;;;7.32;4.22;;;11.60;99.90;;;;;;5012881;28;20501;-83
2024/03/17 05:38:19;;;;;;;10.30;5.25;;;11.60;99.90;;;;;;5027322;28;20028;-84
2024/03/17 05:40:52;;;;;;;8.35;4.95;;;11.60;99.90;;;;;;5007727;28;20024;-82
2024/03/17 05:43:19;;;;;;;9.52;5.15;;;11.60;99.90;;;;;;5006885;28;20024;-85
2024/03/17 05:45:44;;;;;;;13.35;5.35;;;11.60;99.90;;;;;;5011685;28;20155;-84
2024/03/17 05:48:10;;;;;;;14.77;5.70;;;11.60;99.90;;;;;;5030000;28;20485;-84
2024/03/17 05:50:35;;;;;;;9.63;5.82;;;11.60;99.90;;;;;;5012138;28;20029;-83
2024/03/17 05:53:01;;;;;;;13.13;5.25;;;11.60;99.90;;;;;;5029355;28;20029;-82
2024/03/17 05:55:26;;;;;;;10.88;5.93;;;11.60;99.90;;;;;;5011932;28;20025;-82
2024/03/17 05:57:52;;;;;;;10.00;5.53;;;11.60;99.90;;;;;;5012460;28;20022;-82
2024/03/17 06:00:18;;;;;;;10.85;5.57;;;11.60;99.90;;;;;;5009823;28;20029;-83
2024/03/17 06:02:44;;;;;;;13.98;5.47;;;11.60;99.90;;;;;;5028848;28;20013;-82
2024/03/17 06:05:12;;;;;;;9.63;5.15;;;11.60;99.90;;;;;;5008220;28;20017;-83
2024/03/17 06:07:37;;;;;;;10.52;5.90;;;11.60;99.90;;;;;;5011635;28;20033;-84
2024/03/17 06:10:03;;;;;;;9.25;5.78;;;11.60;99.90;;;;;;5012321;28;20084;-84
2024/03/17 06:12:30;;;;;;;10.93;5.20;;;11.60;99.90;;;;;;5009824;28;20021;-84
2024/03/17 06:14:56;;;;;;;10.88;5.85;;;11.60;99.90;;;;;;5012172;28;20025;-84
2024/03/17 06:17:21;;;;;;;11.88;6.22;;;11.60;99.90;;;;;;5008487;28;20057;-84
2024/03/17 06:19:47;;;;;;;9.13;5.88;;;11.60;99.90;;;;;;5008430;28;20040;-83
2024/03/17 06:22:12;;;;;;;12.55;5.72;;;11.60;99.90;;;;;;5008012;28;20013;-83
2024/03/17 06:24:38;;;;;;;9.60;5.40;;;11.60;99.90;;;;;;5006996;28;20018;-84
2024/03/17 06:27:04;;;;;;;9.20;5.30;;;11.60;99.90;;;;;;5023177;28;20022;-85
2024/03/17 06:29:32;;;;;;;13.68;5.97;;;11.60;99.90;;;;;;5025187;28;20483;-83
2024/03/17 06:31:58;;;;;;;11.25;5.22;;;11.60;99.90;;;;;;5009944;28;20036;-85
2024/03/17 06:34:23;;;;;;;9.80;5.43;;;11.70;99.90;;;;;;5003765;28;20026;-84
2024/03/17 06:36:49;;;;;;;10.13;5.22;;;11.60;99.90;;;;;;5007903;28;20024;-84
2024/03/17 06:39:15;;;;;;;12.52;6.45;;;11.60;99.90;;;;;;5012034;28;20029;-87
2024/03/17 06:41:42;;;;;;;12.57;6.68;;;11.60;99.90;;;;;;5025206;28;20014;-83
2024/03/17 06:44:08;;;;;;;12.32;6.28;;;11.60;99.90;;;;;;5011748;28;20022;-85
2024/03/17 06:46:33;;;;;;;11.15;5.63;;;11.60;99.90;;;;;;5009405;28;20025;-86
2024/03/17 06:48:59;;;;;;;13.02;6.30;;;11.70;99.90;;;;;;5005080;28;20037;-84
2024/03/17 06:51:25;;;;;;;12.02;6.65;;;11.70;99.90;;;;;;5025387;28;20034;-85
2024/03/17 06:53:51;;;;;;;14.00;6.00;;;11.70;99.90;;;;;;5010129;28;20021;-85
2024/03/17 06:56:16;;;;;;;11.00;6.45;;;11.70;99.90;;;;;;5001793;28;20029;-84
2024/03/17 06:58:42;;;;;;;11.82;6.43;;;11.70;99.90;;;;;;5007502;28;20395;-84
2024/03/17 07:01:09;;;;;;;11.80;6.63;;;11.70;99.90;;;;;;5006906;28;20021;-84
2024/03/17 07:03:34;;;;;;;10.32;6.15;;;11.70;99.90;;;;;;5012919;28;20048;-85
2024/03/17 07:06:02;;;;;;;16.25;6.30;;;11.70;99.90;;;;;;5011090;28;20034;-85
2024/03/17 07:08:29;;;;;;;12.10;6.47;;;11.70;99.90;;;;;;5008004;28;20367;-84
2024/03/17 07:11:06;;;;;;;12.93;7.28;;;11.70;99.90;;;;;;5012670;28;20395;-84
2024/03/17 07:13:34;;;;;;;15.27;7.03;;;11.70;99.90;;;;;;5006689;28;20026;-85
2024/03/17 07:16:01;;;;;;;15.00;6.38;;;11.70;99.90;;;;;;5023874;28;20024;-86
2024/03/17 07:18:28;;;;;;;15.82;6.50;;;11.70;99.90;;;;;;5014292;28;20096;-85
2024/03/17 07:20:57;;;;;;;10.85;6.10;;;11.70;99.90;;;;;;5015565;28;20013;-86
2024/03/17 07:23:23;;;;;;;11.15;6.57;;;11.80;99.90;;;;;;5013930;28;20026;-86
2024/03/17 07:25:56;;;;;;;12.60;6.32;;;11.80;99.90;;;;;;5030334;28;20014;-86
2024/03/17 07:28:22;;;;;;;11.25;7.10;;;11.80;99.90;;;;;;5010796;28;20454;-82
2024/03/17 07:30:52;;;;;;;13.82;7.22;;;11.80;99.90;;;;;;5012788;28;20021;-82
2024/03/17 07:33:20;;;;;;;;;;;11.80;99.90;;;;;;5013559;28;20032;-83
2024/03/17 07:35:56;;;;;;;12.73;6.07;;;11.80;99.90;;;;;;5015485;28;19905;-84
2024/03/17 07:38:23;;;;;;;5.82;3.90;;;12.50;99.90;;;;;;5011643;28;20026;-86
2024/03/17 07:41:03;;;;;;;9.02;5.05;;;12.40;99.90;;;;;;5014082;28;20018;-86
2024/03/17 07:43:30;;;;;;;;;;;12.40;99.90;;;;;;5015717;28;20080;-87
2024/03/17 07:46:06;;;;;;;14.05;7.25;;;11.90;99.90;;;;;;5014614;28;19904;-86
2024/03/17 07:48:35;;;;;;;15.55;7.28;;;11.80;99.90;;;;;;5027684;28;20033;-87
2024/03/17 07:51:06;;;;;;;14.38;8.30;;;11.70;99.90;;;;;;5014040;28;20021;-85
2024/03/17 07:53:38;;;;;;;15.88;8.40;;;11.70;99.90;;;;;;5007595;28;20029;-87
2024/03/17 07:56:06;;;;;;;15.45;8.43;;;11.70;99.90;;;;;;5008955;28;20553;-84
2024/03/17 07:58:33;;;;;;;15.13;7.93;;;11.60;99.90;;;;;;5011836;28;20029;-82
2024/03/17 08:01:19;;;;;;;15.40;7.82;;;11.60;99.90;;;;;;5011130;28;20101;-81
2024/03/17 08:03:55;;;;;;;14.13;7.35;;;11.60;99.90;;;;;;5010621;28;20029;-82
2024/03/17 08:06:21;;;;;;;14.00;6.85;;;11.60;99.90;;;;;;5006886;28;20503;-85
2024/03/17 08:08:47;;;;;;;13.10;6.80;;;11.60;99.90;;;;;;5007188;28;20025;-84
2024/03/17 08:11:13;;;;;;;16.67;7.97;;;11.70;99.90;;;;;;5007261;28;20380;-83
2024/03/17 08:13:39;;;;;;;13.60;8.02;;;11.70;99.90;;;;;;5009154;28;20025;-83
2024/03/17 08:16:06;;;;;;;13.55;7.10;;;11.70;99.90;;;;;;5007622;28;20041;-82
2024/03/17 08:18:33;;;;;;;12.82;7.63;;;11.70;99.90;;;;;;5031019;28;20132;-82
2024/03/17 08:21:00;;;;;;;13.55;7.60;;;11.60;99.90;;;;;;5011702;28;20499;-82
2024/03/17 08:23:26;;;;;;;13.93;7.05;;;11.70;99.90;;;;;;5003731;28;20124;-83
2024/03/17 08:26:00;;;;;;;14.00;8.55;;;11.80;99.90;;;;;;5024307;28;20105;-82
2024/03/17 08:28:27;;;;;;;11.45;6.65;;;11.90;99.90;;;;;;5026302;28;20060;-85
2024/03/17 08:31:02;;;;;;;13.82;7.88;;;11.90;99.90;;;;;;5008530;28;20025;-81
2024/03/17 08:33:30;;;;;;;12.40;7.60;;;11.90;99.90;;;;;;5013459;28;20025;-83
2024/03/17 08:35:57;;;;;;;8.15;3.03;;;12.10;99.90;;;;;;5010314;28;20071;-86
2024/03/17 08:38:24;;;;;;;4.43;2.63;;;13.20;99.90;;;;;;5006268;28;20017;-90
2024/03/17 08:40:53;;;;;;;8.23;4.45;;;13.60;99.90;;;;;;5010820;28;20105;-89
2024/03/17 08:43:19;;;;;;;11.85;5.10;;;13.50;99.90;;;;;;5011001;28;20108;-84
2024/03/17 08:45:54;;;;;;;9.65;4.75;;;13.10;99.90;;;;;;5008531;28;20018;-86
2024/03/17 08:48:19;;;;;;;9.18;5.30;;;12.90;99.90;;;;;;5010825;28;20076;-88
2024/03/17 08:50:51;;;;;;;8.75;5.32;;;12.80;99.90;;;;;;5013315;28;20423;-86
2024/03/17 08:53:16;;;;;;;10.43;5.53;;;12.80;99.90;;;;;;5011482;28;20454;-86
2024/03/17 08:55:42;;;;;;;9.07;5.47;;;12.80;99.90;;;;;;5011898;28;20109;-86
2024/03/17 08:58:09;;;;;;;11.85;7.00;;;12.70;99.90;;;;;;5008838;28;20491;-86
2024/03/17 09:00:36;;;;;;;10.40;6.25;;;12.80;99.90;;;;;;5007679;28;20038;-86
2024/03/17 09:03:02;;;;;;;10.30;6.40;;;12.90;99.90;;;;;;5006605;28;20460;-85
2024/03/17 09:05:28;;;;;;;9.73;5.97;;;13.00;99.90;;;;;;5006929;28;20108;-83
2024/03/17 09:07:55;;;;;;;11.18;6.38;;;13.00;99.90;;;;;;5007677;28;20017;-83
2024/03/17 09:10:20;;;;;;;9.55;5.90;;;12.90;99.90;;;;;;5023515;28;20402;-85
2024/03/17 09:12:47;;;;;;;9.75;6.32;;;12.80;99.90;;;;;;5028076;28;20033;-84
2024/03/17 09:15:13;;;;;;;11.15;6.13;;;12.80;99.90;;;;;;5002463;28;20026;-86
2024/03/17 09:17:39;;;;;;;9.82;6.25;;;12.80;99.90;;;;;;5004411;28;20116;-84
2024/03/17 09:20:11;;;;;;;11.32;5.85;;;12.90;99.90;;;;;;5007225;28;20048;-84
2024/03/17 09:22:39;;;;;;;9.32;5.70;;;13.00;99.90;;;;;;5015786;28;20034;-85
2024/03/17 09:25:08;;;;;;;9.10;5.50;;;13.10;99.90;;;;;;5023953;28;20056;-86
2024/03/17 09:27:36;;;;;;;8.50;5.53;;;13.20;99.90;;;;;;5005854;28;20022;-85
2024/03/17 09:30:06;;;;;;;10.80;6.20;;;13.30;99.90;;;;;;5027525;28;20104;-85
2024/03/17 09:32:31;;;;;;;8.27;4.43;;;13.40;99.90;;;;;;5027118;28;20497;-86
2024/03/17 09:34:57;;;;;;;9.00;5.22;;;13.50;99.90;;;;;;5004271;28;20125;-85
2024/03/17 09:37:23;;;;;;;9.27;4.55;;;13.70;99.90;;;;;;5007882;28;20048;-85
2024/03/17 09:39:49;;;;;;;9.25;4.53;;;13.70;99.90;;;;;;5008545;28;20052;-85
2024/03/17 09:42:19;;;;;;;8.18;4.72;;;13.70;99.90;;;;;;5023647;28;20026;-85
2024/03/17 09:44:49;;;;;;;6.93;3.80;;;13.70;99.90;;;;;;5004804;28;21492;-84
2024/03/17 09:47:21;;;;;;;10.70;4.57;;;13.60;99.90;;;;;;5006105;28;20028;-86
2024/03/17 09:49:47;;;;;;;7.25;4.35;;;13.60;99.90;;;;;;5007998;28;20084;-85
2024/03/17 09:52:24;;;;;;;8.55;4.80;;;13.70;99.90;;;;;;5009031;28;20325;-85
2024/03/17 09:54:54;;;;;;;8.82;4.38;;;13.60;99.90;;;;;;5024589;28;20033;-84
2024/03/17 09:57:22;;;;;;;7.95;5.07;;;13.50;99.90;;;;;;5008212;28;20036;-85
2024/03/17 09:59:52;;;;;;;7.05;4.47;;;13.20;99.90;;;;;;5025587;28;20030;-84
2024/03/17 10:02:18;;;;;;;11.15;5.03;;;13.10;99.90;;;;;;5007361;28;20022;-84
2024/03/17 10:04:47;;;;;;;8.90;5.32;;;12.90;99.90;;;;;;5003259;28;20049;-86
2024/03/17 10:07:14;;;;;;;9.25;5.32;;;12.80;99.90;;;;;;5005920;28;20368;-83
2024/03/17 10:09:41;;;;;;;7.40;4.75;;;12.70;99.90;;;;;;5029120;28;20018;-85
2024/03/17 10:12:28;;;;;;;8.57;5.18;;;12.70;99.90;;;;;;5020302;28;20029;-85
2024/03/17 10:15:01;;;;;;;9.27;5.05;;;12.70;99.90;;;;;;5028950;28;20033;-83
2024/03/17 10:17:32;;;;;;;10.20;5.22;;;12.80;99.90;;;;;;5005876;28;20068;-85
2024/03/17 10:20:17;;;;;;;7.47;5.32;;;13.00;99.90;;;;;;5026957;28;20013;-87
2024/03/17 10:23:05;;;;;;;9.90;4.50;;;13.00;99.90;;;;;;5024940;28;20116;-81
2024/03/17 10:25:38;;;;;;;8.80;4.85;;;13.00;99.90;;;;;;5023598;28;20018;-82
2024/03/17 10:28:13;;;;;;;8.15;4.68;;;13.00;99.90;;;;;;5009018;28;20022;-84
2024/03/17 10:30:40;;;;;;;8.65;4.75;;;12.90;99.90;;;;;;5026847;28;20155;-86
2024/03/17 10:33:08;;;;;;;8.13;4.32;;;12.90;99.90;;;;;;5005345;28;20040;-84
2024/03/17 10:35:36;;;;;;;8.30;4.55;;;12.90;99.90;;;;;;5020583;28;20099;-84
2024/03/17 10:38:07;;;;;;;12.43;4.65;;;13.00;99.90;;;;;;5007703;28;20498;-84
2024/03/17 10:40:39;;;;;;;;;;;12.90;99.90;;;;;;5006180;28;20022;-84
2024/03/17 10:43:05;;;;;;;9.48;4.28;;;12.90;99.90;;;;;;5027152;28;19990;-85
2024/03/17 10:45:37;;;;;;;8.18;4.50;;;12.90;99.90;;;;;;5003572;28;20078;-84
2024/03/17 10:48:07;;;;;;;7.25;4.28;;;12.90;99.90;;;;;;5005036;28;20561;-85
2024/03/17 10:50:36;;;;;;;8.80;4.35;;;13.00;99.90;;;;;;5007819;28;20575;-85
2024/03/17 10:53:06;;;;;;;8.65;4.97;;;13.00;99.90;;;;;;5003077;28;20081;-84
2024/03/17 10:55:42;;;;;;;9.02;4.13;;;13.00;99.90;;;;;;5019426;28;20096;-83
2024/03/17 10:58:28;;;;;;;9.68;3.83;;;13.00;99.90;;;;;;5023240;28;20029;-82
2024/03/17 11:00:56;;;;;;;12.95;3.15;;;13.10;99.90;;;;;;5022269;28;20069;-83
2024/03/17 11:03:22;;;;;;;5.00;3.45;;;13.10;99.90;;;;;;5010056;28;20071;-82
2024/03/17 11:05:52;;;;;;;6.07;3.63;;;13.30;99.90;;;;;;5011246;28;20053;-85
2024/03/17 11:08:18;;;;;;;5.25;3.15;;;13.20;99.90;;;;;;5022681;28;20021;-84
2024/03/17 11:10:54;;;;;;;4.40;3.30;;;13.20;99.90;;;;;;5008985;28;20041;-78
2024/03/17 11:13:25;;;;;;;7.60;2.92;;;13.10;99.90;;;;;;5025035;28;20044;-80
2024/03/17 11:15:51;;;;;;;5.90;3.58;;;13.10;99.90;;;;;;5022630;28;20103;-80
2024/03/17 11:18:20;;;;;;;6.72;3.08;;;13.10;99.90;;;;;;5010642;28;20148;-81
2024/03/17 11:21:15;;;;;;;5.38;3.08;;;13.10;99.90;;;;;;5010764;28;20033;-81
2024/03/17 11:23:41;;;;;;;6.32;3.72;;;13.10;99.90;;;;;;5006342;28;20041;-80
2024/03/17 11:26:08;;;;;;;7.72;3.50;;;13.10;99.90;;;;;;5020659;28;20038;-80
2024/03/17 11:29:02;;;;;;;4.88;3.15;;;13.10;99.90;;;;;;5009428;28;20033;-80
2024/03/17 11:31:40;;;;;;;8.00;3.00;;;13.10;99.90;;;;;;5005272;28;20120;-80
2024/03/17 11:34:25;;;;;;;6.55;3.63;;;13.10;99.90;;;;;;5024593;28;20025;-81
2024/03/17 11:36:51;;;;;;;7.60;3.47;;;13.10;99.90;;;;;;5010288;28;20045;-80
2024/03/17 11:39:27;;;;;;;5.90;2.47;;;13.20;99.90;;;;;;5016802;28;20065;-80
2024/03/17 11:41:54;;;;;;;5.70;3.15;;;13.30;99.90;;;;;;5021913;28;20018;-82
2024/03/17 11:44:24;;;;;;;7.78;3.13;;;13.30;99.90;;;;;;5008087;28;20047;-83
2024/03/17 11:46:53;;;;;;;;;;;13.30;99.90;;;;;;5008203;28;20025;-82
2024/03/17 11:49:40;;;;;;;5.63;2.80;;;13.30;99.90;;;;;;5005449;28;19909;-83
2024/03/17 11:52:16;;;;;;;5.05;2.95;;;13.30;99.90;;;;;;5007888;28;20327;-83
2024/03/17 11:54:44;;;;;;;5.00;2.83;;;13.20;99.90;;;;;;5015025;28;20017;-85
2024/03/17 11:57:11;;;;;;;4.07;2.78;;;13.20;99.90;;;;;;5031772;28;20037;-81
2024/03/17 11:59:37;;;;;;;9.50;2.97;;;13.20;99.90;;;;;;5030878;28;20025;-82
2024/03/17 12:02:14;;;;;;;5.97;3.67;;;13.10;99.90;;;;;;5006925;28;20025;-81
2024/03/17 12:04:40;;;;;;;7.35;2.78;;;13.10;99.90;;;;;;5005753;28;20060;-84
2024/03/17 12:07:14;;;;;;;9.57;2.78;;;13.10;99.90;;;;;;5011429;28;20128;-82
2024/03/17 12:09:42;;;;;;;8.18;3.45;;;13.20;99.90;;;;;;5010149;28;20522;-84
2024/03/17 12:12:16;;;;;;;11.45;3.38;;;13.20;99.90;;;;;;5009666;28;20041;-83
2024/03/17 12:14:41;;;;;;;6.07;3.38;;;13.20;99.90;;;;;;5009916;28;20032;-84
2024/03/17 12:17:09;;;;;;;6.72;3.40;;;13.10;99.90;;;;;;5024355;28;20400;-84
2024/03/17 12:19:35;;;;;;;5.80;3.30;;;13.10;99.90;;;;;;5010054;28;20043;-84
2024/03/17 12:22:02;;;;;;;9.27;3.20;;;13.00;99.90;;;;;;5013002;28;20108;-84
2024/03/17 12:24:34;;;;;;;10.32;3.45;;;12.90;99.90;;;;;;5030891;28;20017;-83
2024/03/17 12:27:02;;;;;;;7.28;3.17;;;12.90;99.90;;;;;;5027664;28;20024;-83
2024/03/17 12:29:32;;;;;;;10.45;3.33;;;12.90;99.90;;;;;;5011502;28;20510;-82
2024/03/17 12:32:20;;;;;;;7.18;3.08;;;12.80;99.90;;;;;;5003899;28;20029;-83
2024/03/17 12:34:49;;;;;;;7.07;3.03;;;12.80;99.90;;;;;;5029504;28;20034;-83
2024/03/17 12:37:24;;;;;;;10.82;3.70;;;12.80;99.90;;;;;;5010562;28;20033;-84
2024/03/17 12:39:51;;;;;;;5.15;2.60;;;12.80;99.90;;;;;;5013211;28;20419;-83
2024/03/17 12:42:25;;;;;;;6.10;3.42;;;12.80;99.90;;;;;;5010658;28;20025;-83
2024/03/17 12:44:56;;;;;;;7.30;3.40;;;12.80;99.90;;;;;;5028724;28;20502;-82
2024/03/17 12:47:24;;;;;;;8.45;3.22;;;12.90;99.90;;;;;;5028621;28;20028;-83
2024/03/17 12:49:55;;;;;;;7.15;2.95;;;12.90;99.90;;;;;;5010474;28;20108;-84